Time;durP1;ratioP1;P1;durP2;ratioP2;P2;SDS_P1;SDS_P2;PMS_P1;PMS_P2;Temp;Humidity;BMP_temperature;BMP_pressure;BME280_temperature;BME280_humidity;BME280_pressure;Samples;Min_cycle;Max_cycle;Signal;HPM_P1;HPM_P2
2021/09/06 00:00:10;;;;;;;6.60;3.42;;;;;;;13.14;100.00;100043.85;4172072;84;28520;-85
2021/09/06 00:06:16;;;;;;;6.40;3.15;;;;;;;12.99;100.00;100039.64;4168194;84;28516;-85
2021/09/06 00:12:17;;;;;;;7.58;3.15;;;;;;;13.17;100.00;100038.84;4159671;84;28684;-87
2021/09/06 00:18:19;;;;;;;6.35;3.62;;;;;;;13.15;100.00;100044.15;4106325;85;28481;-86
2021/09/06 00:24:20;;;;;;;7.17;3.55;;;;;;;13.55;100.00;100034.83;4145275;85;28438;-85
2021/09/06 00:30:21;;;;;;;6.03;3.35;;;;;;;13.49;100.00;100040.08;4157427;84;28488;-83
2021/09/06 00:36:22;;;;;;;6.85;2.87;;;;;;;13.51;100.00;100042.02;4161902;84;28462;-85
2021/09/06 00:42:24;;;;;;;7.03;3.87;;;;;;;13.57;100.00;100039.48;4145740;84;28443;-86
2021/09/06 00:48:26;;;;;;;6.05;3.72;;;;;;;13.51;100.00;100033.91;4104678;85;28449;-85
2021/09/06 00:54:28;;;;;;;6.83;3.77;;;;;;;13.53;100.00;100043.96;4058310;86;28469;-85
2021/09/06 01:00:30;;;;;;;6.28;3.70;;;;;;;13.58;100.00;100043.83;4102974;85;28485;-85
2021/09/06 01:06:32;;;;;;;6.17;3.50;;;;;;;13.51;100.00;100045.27;4248172;82;28536;-85
2021/09/06 01:12:36;;;;;;;6.05;3.40;;;;;;;13.25;100.00;100041.76;4216358;82;28524;-85
2021/09/06 01:18:38;;;;;;;7.75;3.55;;;;;;;13.31;100.00;100031.94;4222007;83;28550;-87
2021/09/06 01:24:40;;;;;;;6.83;3.65;;;;;;;13.37;100.00;100033.75;4222965;82;28443;-85
2021/09/06 01:30:43;;;;;;;6.70;3.62;;;;;;;13.38;100.00;100032.19;4210743;82;28555;-86
2021/09/06 01:36:46;;;;;;;7.62;4.72;;;;;;;13.22;100.00;100032.25;4197180;82;28510;-87
2021/09/06 01:42:47;;;;;;;8.93;5.05;;;;;;;13.10;100.00;100038.07;4230965;82;28499;-87
2021/09/06 01:48:51;;;;;;;7.85;4.20;;;;;;;13.17;100.00;100036.13;4200264;82;28463;-86
2021/09/06 01:54:53;;;;;;;6.15;3.50;;;;;;;13.00;100.00;100037.24;4201757;83;28484;-86
2021/09/06 02:00:55;;;;;;;7.05;3.47;;;;;;;12.87;100.00;100040.08;4266875;80;28559;-86
2021/09/06 02:06:58;;;;;;;7.65;3.42;;;;;;;12.67;100.00;100049.97;4238599;82;28574;-84
2021/09/06 02:13:00;;;;;;;7.15;3.22;;;;;;;12.89;100.00;100052.82;4267581;82;28519;-86
2021/09/06 02:19:03;;;;;;;6.50;3.80;;;;;;;12.96;100.00;100061.66;4260791;82;28506;-87
2021/09/06 02:25:08;;;;;;;6.90;3.62;;;;;;;12.93;100.00;100056.72;4260102;84;28491;-86
2021/09/06 02:31:10;;;;;;;7.08;3.95;;;;;;;12.66;100.00;100055.07;4259290;82;28487;-86
2021/09/06 02:37:28;;;;;;;6.62;3.75;;;;;;;12.59;100.00;100055.64;4243466;82;28516;-88
2021/09/06 02:43:30;;;;;;;6.58;3.58;;;;;;;12.47;100.00;100058.74;4246010;84;28490;-84
2021/09/06 02:49:33;;;;;;;5.58;3.27;;;;;;;12.37;100.00;100060.05;4246051;84;28546;-86
2021/09/06 02:55:35;;;;;;;4.67;2.87;;;;;;;12.42;100.00;100063.44;4253449;82;28473;-86
2021/09/06 03:01:37;;;;;;;8.13;4.30;;;;;;;12.28;100.00;100061.35;4262089;82;28533;-86
2021/09/06 03:07:38;;;;;;;7.67;3.55;;;;;;;12.26;100.00;100054.84;4260157;84;28523;-86
2021/09/06 03:13:39;;;;;;;7.28;3.98;;;;;;;12.26;100.00;100048.11;4259856;84;28538;-87
2021/09/06 03:19:41;;;;;;;6.42;3.58;;;;;;;12.04;100.00;100051.65;4262054;82;28452;-87
2021/09/06 03:25:43;;;;;;;6.35;3.40;;;;;;;12.02;100.00;100060.95;4259688;84;28489;-86
2021/09/06 03:31:45;;;;;;;6.37;3.50;;;;;;;12.15;100.00;100056.05;4260150;82;28499;-88
2021/09/06 03:37:47;;;;;;;8.53;4.20;;;;;;;12.13;100.00;100061.14;4260223;84;28490;-87
2021/09/06 03:43:51;;;;;;;9.10;5.20;;;;;;;12.22;100.00;100064.39;4259865;83;28476;-87
2021/09/06 03:49:53;;;;;;;7.95;4.50;;;;;;;11.95;100.00;100061.83;4255554;82;28488;-85
2021/09/06 03:55:54;;;;;;;6.87;4.00;;;;;;;12.31;100.00;100064.14;4253732;82;28544;-86
2021/09/06 04:01:56;;;;;;;7.25;3.90;;;;;;;12.34;100.00;100058.30;4263270;82;28470;-86
2021/09/06 04:07:58;;;;;;;8.00;4.35;;;;;;;11.97;100.00;100065.64;4276598;82;28509;-87
2021/09/06 04:14:00;;;;;;;10.28;4.45;;;;;;;11.92;100.00;100066.31;4249810;82;28520;-88
2021/09/06 04:20:05;;;;;;;9.33;3.85;;;;;;;11.95;100.00;100060.48;4256837;82;28460;-86
2021/09/06 04:26:07;;;;;;;7.67;3.87;;;;;;;12.09;100.00;100061.28;4262937;82;28540;-86
2021/09/06 04:32:10;;;;;;;5.17;3.27;;;;;;;12.17;100.00;100068.78;4272270;82;28513;-87
2021/09/06 04:38:12;;;;;;;7.12;3.98;;;;;;;12.19;100.00;100075.62;4275689;82;28511;-86
2021/09/06 04:44:17;;;;;;;9.33;4.08;;;;;;;12.26;100.00;100072.38;4223263;82;28482;-84
2021/09/06 04:50:19;;;;;;;8.13;4.40;;;;;;;12.27;100.00;100069.98;4254766;82;28467;-86
2021/09/06 04:56:23;;;;;;;7.40;3.70;;;;;;;12.45;100.00;100079.21;4241572;82;28501;-84
2021/09/06 05:02:25;;;;;;;5.67;3.50;;;;;;;12.49;100.00;100083.11;4248067;82;28516;-83
2021/09/06 05:08:27;;;;;;;8.53;4.00;;;;;;;12.55;100.00;100084.95;4253578;81;28463;-85
2021/09/06 05:14:29;;;;;;;7.50;4.10;;;;;;;12.44;100.00;100087.51;4262590;81;28459;-85
2021/09/06 05:20:30;;;;;;;7.70;4.42;;;;;;;12.22;100.00;100088.66;4254780;81;28442;-83
2021/09/06 05:26:33;;;;;;;8.90;4.10;;;;;;;12.36;100.00;100084.02;4237188;81;28465;-84
2021/09/06 05:32:35;;;;;;;10.25;4.53;;;;;;;12.63;100.00;100091.94;4266367;81;28443;-84
2021/09/06 05:38:38;;;;;;;7.05;3.85;;;;;;;12.51;100.00;100089.65;4270809;81;28470;-86
2021/09/06 05:44:47;;;;;;;7.22;3.87;;;;;;;12.75;100.00;100096.09;4134072;83;28502;-84
2021/09/06 05:50:47;;;;;;;8.55;4.35;;;;;;;12.67;100.00;100093.14;4086014;85;28536;-85
2021/09/06 05:57:07;;;;;;;8.85;4.50;;;;;;;12.99;100.00;100085.53;4150782;83;28537;-84
2021/09/06 06:03:09;;;;;;;8.98;4.67;;;;;;;12.99;100.00;100090.94;4145481;84;28533;-84
2021/09/06 06:09:10;;;;;;;7.20;4.25;;;;;;;13.14;100.00;100085.19;4164715;83;28463;-86
2021/09/06 06:15:13;;;;;;;10.13;4.05;;;;;;;13.52;100.00;100084.73;4275688;81;28451;-85
2021/09/06 06:21:15;;;;;;;10.30;4.65;;;;;;;13.60;100.00;100086.30;4277084;81;28519;-83
2021/09/06 06:27:36;;;;;;;12.68;4.92;;;;;;;13.60;100.00;100083.59;4245923;81;28543;-85
2021/09/06 06:33:40;;;;;;;9.83;4.45;;;;;;;13.76;100.00;100078.11;4270433;81;28560;-87
2021/09/06 06:39:43;;;;;;;9.55;4.53;;;;;;;14.05;100.00;100079.73;4265304;81;28452;-86
2021/09/06 06:45:47;;;;;;;8.63;4.40;;;;;;;13.86;100.00;100093.27;4259979;81;28521;-85
2021/09/06 06:51:50;;;;;;;10.50;5.20;;;;;;;14.39;100.00;100096.30;4279608;81;28474;-86
2021/09/06 06:57:52;;;;;;;14.70;5.05;;;;;;;14.28;100.00;100103.86;4264314;81;28552;-85
2021/09/06 07:03:54;;;;;;;10.25;4.67;;;;;;;14.28;100.00;100110.11;4284687;83;28497;-86
2021/09/06 07:09:55;;;;;;;9.15;4.10;;;;;;;14.30;100.00;100117.97;4267993;83;28462;-87
2021/09/06 07:15:56;;;;;;;8.23;4.50;;;;;;;14.73;100.00;100121.02;4270491;82;28454;-87
2021/09/06 07:21:58;;;;;;;9.95;4.65;;;;;;;15.05;100.00;100129.38;4282161;82;28441;-84
2021/09/06 07:28:00;;;;;;;9.80;3.95;;;;;;;15.11;100.00;100143.86;4230309;83;28513;-87
2021/09/06 07:34:01;;;;;;;6.78;3.35;;;;;;;14.96;99.16;100141.09;4230565;82;28467;-87
2021/09/06 07:40:04;;;;;;;12.25;4.03;;;;;;;15.54;95.81;100141.33;4273350;82;28475;-86
2021/09/06 07:46:08;;;;;;;7.42;3.55;;;;;;;15.37;96.37;100139.87;4258378;83;28457;-85
2021/09/06 07:52:09;;;;;;;10.60;3.70;;;;;;;15.85;90.06;100141.98;4262124;81;28524;-86
2021/09/06 07:58:11;;;;;;;8.70;4.08;;;;;;;16.13;88.63;100142.30;4262710;83;28510;-85
2021/09/06 08:04:14;;;;;;;9.25;3.40;;;;;;;16.26;87.24;100146.10;4256627;81;28462;-83
2021/09/06 08:10:15;;;;;;;7.03;3.75;;;;;;;16.06;84.99;100145.70;4245909;82;28456;-85
2021/09/06 08:16:17;;;;;;;7.62;3.25;;;;;;;16.44;83.21;100143.72;4128489;85;28475;-84
2021/09/06 08:22:20;;;;;;;8.60;3.35;;;;;;;16.52;84.07;100138.98;4137504;84;28440;-84
2021/09/06 08:28:24;;;;;;;5.30;3.17;;;;;;;16.67;79.31;100146.02;4126525;86;28544;-84
2021/09/06 08:34:26;;;;;;;5.60;2.50;;;;;;;16.51;77.01;100142.20;4134977;85;28473;-82
2021/09/06 08:40:28;;;;;;;6.95;2.60;;;;;;;16.73;75.58;100141.50;4139159;84;28494;-85
2021/09/06 08:46:30;;;;;;;5.55;2.58;;;;;;;16.99;74.58;100144.66;4138400;84;28487;-84
2021/09/06 08:52:32;;;;;;;4.28;2.30;;;;;;;17.10;67.35;100150.58;4122681;84;28594;-81
2021/09/06 08:58:33;;;;;;;4.75;2.17;;;;;;;17.24;68.40;100152.43;4133401;84;28494;-80
2021/09/06 09:04:35;;;;;;;3.80;1.80;;;;;;;17.93;69.55;100157.71;4107648;84;28551;-82
2021/09/06 09:10:50;;;;;;;2.45;1.25;;;;;;;18.00;62.03;100161.59;4150524;84;43250;-84
2021/09/06 09:16:58;;;;;;;2.37;1.30;;;;;;;17.93;58.35;100150.38;4094984;84;28494;-83
2021/09/06 09:23:18;;;;;;;2.62;1.20;;;;;;;17.90;52.69;100145.42;4211635;82;28492;-82
2021/09/06 09:29:28;;;;;;;4.45;1.40;;;;;;;18.62;54.51;100145.97;4205835;82;28518;-85
2021/09/06 09:35:34;;;;;;;3.55;1.37;;;;;;;18.70;57.20;100142.78;4245133;82;28489;-86
2021/09/06 09:41:39;;;;;;;3.33;1.92;;;;;;;18.85;58.29;100143.98;4250564;82;28505;-86
2021/09/06 09:47:53;;;;;;;3.65;2.08;;;;;;;19.08;58.23;100135.52;4224060;82;28473;-85
2021/09/06 09:53:55;;;;;;;4.15;1.80;;;;;;;18.69;58.89;100131.61;4207064;83;28505;-86
2021/09/06 09:59:56;;;;;;;6.65;1.82;;;;;;;18.94;57.16;100129.64;4232322;82;28463;-86
2021/09/06 10:06:00;;;;;;;3.20;1.32;;;;;;;19.13;57.51;100121.63;4169448;83;28476;-86
2021/09/06 10:12:07;;;;;;;2.92;1.32;;;;;;;19.25;57.12;100111.34;4109687;84;28500;-84
2021/09/06 10:18:22;;;;;;;3.08;1.15;;;;;;;19.16;54.34;100097.41;4149561;84;28510;-86
2021/09/06 10:24:26;;;;;;;3.52;1.70;;;;;;;19.47;54.21;100094.86;4162731;84;28549;-85
2021/09/06 10:30:43;;;;;;;3.25;1.67;;;;;;;19.49;53.29;100091.31;4172938;84;28458;-83
2021/09/06 10:37:04;;;;;;;4.45;1.40;;;;;;;19.62;51.51;100084.56;4154756;84;28475;-83
2021/09/06 10:43:21;;;;;;;3.15;1.72;;;;;;;19.62;53.80;100085.92;4163717;84;28503;-85
2021/09/06 10:49:27;;;;;;;3.58;1.40;;;;;;;19.81;52.11;100088.19;4191009;83;28470;-86
2021/09/06 10:55:29;;;;;;;3.58;1.85;;;;;;;19.71;51.28;100080.77;4183203;84;28455;-83
2021/09/06 11:01:36;;;;;;;4.47;1.90;;;;;;;20.00;50.92;100070.81;4192266;85;28515;-81
2021/09/06 11:07:39;;;;;;;3.30;1.50;;;;;;;20.04;50.81;100071.09;4168920;85;29132;-81
2021/09/06 11:13:46;;;;;;;2.75;1.35;;;;;;;20.04;49.53;100065.08;4166957;86;28468;-82
2021/09/06 11:19:57;;;;;;;3.12;1.27;;;;;;;19.75;45.28;100067.42;4150550;86;28518;-82
2021/09/06 11:26:02;;;;;;;3.55;1.30;;;;;;;20.03;45.36;100067.53;4154446;86;28866;-83
2021/09/06 11:32:06;;;;;;;3.70;1.30;;;;;;;19.93;45.10;100066.14;4162446;84;28475;-82
2021/09/06 11:38:10;;;;;;;1.95;1.10;;;;;;;20.25;45.00;100056.92;4161317;84;28509;-84
2021/09/06 11:44:11;;;;;;;2.72;1.22;;;;;;;20.46;43.59;100055.05;4154770;84;28499;-84
2021/09/06 11:50:15;;;;;;;2.77;1.30;;;;;;;20.30;44.72;100043.30;4152610;84;28462;-84
2021/09/06 11:56:16;;;;;;;4.90;1.42;;;;;;;20.12;43.89;100042.44;4172634;84;28595;-83
2021/09/06 12:02:17;;;;;;;3.10;1.45;;;;;;;20.13;43.34;100038.62;4147799;84;28549;-82
2021/09/06 12:08:21;;;;;;;2.85;1.30;;;;;;;20.34;45.22;100038.91;4097846;82;28526;-82
2021/09/06 12:14:22;;;;;;;3.72;1.35;;;;;;;20.57;45.74;100032.66;4092435;85;28472;-83
2021/09/06 12:20:27;;;;;;;3.00;1.40;;;;;;;20.76;45.21;100025.25;4060076;86;28471;-84
2021/09/06 12:26:44;;;;;;;3.25;1.60;;;;;;;20.25;43.76;100027.45;4055434;86;28534;-86
2021/09/06 12:32:45;;;;;;;2.50;1.40;;;;;;;20.83;42.68;100018.19;4052738;86;28470;-84
2021/09/06 12:38:46;;;;;;;2.87;1.20;;;;;;;21.03;43.61;100011.84;4055889;86;28627;-86
2021/09/06 12:44:48;;;;;;;2.87;1.20;;;;;;;20.94;41.93;100005.30;4060222;86;28517;-86
2021/09/06 12:50:49;;;;;;;4.30;1.30;;;;;;;20.91;40.92;99999.84;4057528;86;28448;-86
2021/09/06 12:56:52;;;;;;;1.92;1.20;;;;;;;20.98;41.65;99988.08;4067606;87;28510;-83
2021/09/06 13:02:54;;;;;;;3.33;1.10;;;;;;;20.79;40.58;99998.76;4064259;86;28462;-81
2021/09/06 13:08:57;;;;;;;2.10;1.20;;;;;;;20.98;40.77;99991.34;4241327;83;28505;-83
2021/09/06 13:14:58;;;;;;;3.40;1.22;;;;;;;21.43;41.73;99989.56;4222099;82;28530;-81
2021/09/06 13:21:01;;;;;;;2.40;1.35;;;;;;;21.10;41.54;99993.78;4226102;83;28868;-84
2021/09/06 13:27:04;;;;;;;4.35;1.22;;;;;;;20.81;40.01;99991.09;4222092;83;28472;-84
2021/09/06 13:33:05;;;;;;;2.83;1.50;;;;;;;20.92;39.97;99988.38;4170298;84;28492;-82
2021/09/06 13:39:06;;;;;;;5.53;1.50;;;;;;;21.04;42.00;99980.67;4237349;84;28538;-82
2021/09/06 13:45:09;;;;;;;2.90;1.12;;;;;;;20.91;39.30;99986.17;4234664;83;28505;-85
2021/09/06 13:51:10;;;;;;;3.62;1.20;;;;;;;20.91;39.20;99982.64;4213096;83;28614;-84
2021/09/06 13:57:12;;;;;;;2.22;1.30;;;;;;;20.84;39.34;99983.73;4195656;84;28659;-85
2021/09/06 14:03:14;;;;;;;3.77;1.35;;;;;;;21.22;40.13;99974.34;4200873;83;28506;-85
2021/09/06 14:09:15;;;;;;;2.30;1.40;;;;;;;21.03;40.82;99976.31;4231591;82;28472;-85
2021/09/06 14:15:19;;;;;;;3.22;1.42;;;;;;;20.97;40.58;99976.05;4227400;82;28467;-84
2021/09/06 14:21:20;;;;;;;2.92;1.30;;;;;;;21.40;40.74;99976.45;4272865;82;28536;-85
2021/09/06 14:27:22;;;;;;;2.02;1.02;;;;;;;21.42;41.61;99975.62;4257725;82;28490;-85
2021/09/06 14:33:26;;;;;;;5.35;1.77;;;;;;;21.49;41.00;99964.90;4244951;82;28492;-83
2021/09/06 14:39:26;;;;;;;2.98;1.87;;;;;;;21.45;39.74;99974.22;4258870;84;28569;-84
2021/09/06 14:45:28;;;;;;;2.92;1.30;;;;;;;21.49;39.95;99967.09;4259490;82;28544;-84
2021/09/06 14:51:30;;;;;;;3.05;1.40;;;;;;;21.61;39.46;99959.93;4218437;83;28531;-84
2021/09/06 14:57:31;;;;;;;4.03;1.35;;;;;;;21.64;40.47;99953.05;4235418;82;28550;-84
2021/09/06 15:03:32;;;;;;;2.42;1.12;;;;;;;21.53;40.78;99955.05;4222153;82;28472;-85
2021/09/06 15:09:34;;;;;;;3.72;1.30;;;;;;;21.55;41.58;99959.68;4219554;82;28466;-86
2021/09/06 15:15:35;;;;;;;3.52;1.42;;;;;;;21.24;39.38;99955.19;4171548;83;28511;-85
2021/09/06 15:21:37;;;;;;;3.52;1.60;;;;;;;21.28;39.81;99960.36;4214839;82;28457;-84
2021/09/06 15:27:41;;;;;;;2.87;1.10;;;;;;;21.45;40.37;99949.59;4185855;82;28523;-86
2021/09/06 15:33:43;;;;;;;4.05;1.72;;;;;;;21.50;39.08;99952.86;4205266;82;28453;-86
2021/09/06 15:39:45;;;;;;;1.98;1.30;;;;;;;21.13;38.83;99944.00;4202595;82;28527;-86
2021/09/06 15:45:47;;;;;;;4.20;1.50;;;;;;;21.27;38.79;99943.69;4240998;82;28551;-86
2021/09/06 15:51:48;;;;;;;2.90;1.40;;;;;;;21.19;40.65;99942.89;4221311;82;28511;-85
2021/09/06 15:57:49;;;;;;;3.47;1.35;;;;;;;21.23;42.86;99933.02;4252107;82;28505;-87
2021/09/06 16:03:51;;;;;;;3.95;1.45;;;;;;;21.16;43.53;99933.33;4244149;82;28486;-86
2021/09/06 16:09:52;;;;;;;2.27;1.52;;;;;;;20.93;43.68;99934.81;4229544;82;28494;-85
2021/09/06 16:15:54;;;;;;;2.75;1.50;;;;;;;20.92;44.00;99924.95;4269411;82;28471;-87
2021/09/06 16:21:55;;;;;;;3.40;1.42;;;;;;;20.88;43.87;99928.81;4213119;82;28520;-86
2021/09/06 16:27:57;;;;;;;5.62;2.30;;;;;;;21.05;43.81;99930.94;4225857;82;28487;-86
2021/09/06 16:33:58;;;;;;;3.45;1.60;;;;;;;20.88;44.27;99938.38;4261881;82;28453;-85
2021/09/06 16:40:00;;;;;;;4.67;2.02;;;;;;;20.83;44.54;99934.27;4242006;82;28497;-90
2021/09/06 16:46:01;;;;;;;4.08;1.60;;;;;;;20.86;45.58;99942.47;4253724;82;28467;-82
2021/09/06 16:52:03;;;;;;;5.65;1.62;;;;;;;20.62;45.94;99938.95;4248897;82;28488;-82
2021/09/06 16:58:05;;;;;;;3.08;1.50;;;;;;;20.41;47.01;99935.42;4265889;82;28471;-82
2021/09/06 17:04:10;;;;;;;6.30;1.90;;;;;;;20.22;48.97;99940.08;4258874;82;28543;-86
2021/09/06 17:10:15;;;;;;;3.77;1.80;;;;;;;19.98;53.82;99940.63;4273693;82;28507;-82
2021/09/06 17:16:16;;;;;;;5.22;2.02;;;;;;;19.75;53.91;99936.47;4229497;82;28576;-81
2021/09/06 17:22:18;;;;;;;5.95;1.85;;;;;;;19.40;55.12;99931.22;4232779;82;28533;-79
2021/09/06 17:28:20;;;;;;;6.90;1.98;;;;;;;18.99;65.39;99934.56;4267383;82;28467;-79
2021/09/06 17:34:24;;;;;;;6.00;1.80;;;;;;;18.62;66.34;99943.08;4267311;82;28569;-80
2021/09/06 17:40:24;;;;;;;4.05;1.75;;;;;;;18.30;75.45;99948.03;4249789;82;28450;-80
2021/09/06 17:46:26;;;;;;;5.67;1.98;;;;;;;18.19;68.83;99947.95;4274687;82;28904;-80
2021/09/06 17:52:27;;;;;;;7.33;1.80;;;;;;;18.23;73.39;99946.89;4270757;82;28434;-81
2021/09/06 17:58:28;;;;;;;6.28;2.60;;;;;;;17.94;73.20;99954.79;4262796;82;28491;-82
2021/09/06 18:04:29;;;;;;;6.37;1.90;;;;;;;17.61;78.55;99958.00;4252408;82;28506;-80
2021/09/06 18:10:31;;;;;;;5.30;2.20;;;;;;;17.39;77.25;99958.84;4300948;82;28467;-79
2021/09/06 18:16:33;;;;;;;5.22;2.37;;;;;;;17.13;82.32;99957.16;4284484;82;28508;-80
2021/09/06 18:22:39;;;;;;;5.25;2.60;;;;;;;17.08;83.41;99963.91;4276522;81;28537;-79
2021/09/06 18:28:40;;;;;;;7.30;2.90;;;;;;;16.84;87.64;99967.34;4265258;81;28461;-80
2021/09/06 18:34:42;;;;;;;9.75;2.80;;;;;;;16.81;88.37;99963.23;4323920;81;28575;-80
2021/09/06 18:40:44;;;;;;;6.25;2.50;;;;;;;16.94;84.89;99975.64;4278913;81;28492;-81
2021/09/06 18:46:45;;;;;;;6.25;2.58;;;;;;;16.37;91.28;99976.69;4174986;83;28632;-80
2021/09/06 18:52:46;;;;;;;9.30;2.30;;;;;;;16.41;89.55;99988.16;4196857;83;28480;-79
2021/09/06 18:58:48;;;;;;;6.70;2.30;;;;;;;16.25;92.79;99984.38;4221267;83;28510;-80
2021/09/06 19:04:49;;;;;;;4.80;2.30;;;;;;;16.28;94.15;99981.68;4117138;85;28585;-80
2021/09/06 19:10:52;;;;;;;5.28;2.60;;;;;;;16.28;90.31;99982.52;4319214;81;28485;-79
2021/09/06 19:16:55;;;;;;;6.03;2.30;;;;;;;16.20;92.66;99973.97;4306818;81;28509;-79
2021/09/06 19:22:59;;;;;;;8.28;2.87;;;;;;;16.02;96.22;99973.13;4261731;81;28527;-80
2021/09/06 19:29:00;;;;;;;6.30;2.35;;;;;;;15.84;99.61;99976.30;4257291;81;28588;-80
2021/09/06 19:35:02;;;;;;;6.35;2.62;;;;;;;15.71;98.43;99979.31;4280244;81;28479;-78
2021/09/06 19:41:04;;;;;;;9.95;3.70;;;;;;;15.61;99.40;99982.62;4295375;81;28553;-80
2021/09/06 19:47:06;;;;;;;7.65;3.27;;;;;;;15.42;98.71;99983.34;4310617;81;28459;-83
2021/09/06 19:53:08;;;;;;;7.97;3.30;;;;;;;15.33;100.00;99987.78;4271855;81;28449;-82
2021/09/06 19:59:10;;;;;;;7.17;3.45;;;;;;;15.00;100.00;99992.52;4293809;81;28481;-82
2021/09/06 20:05:12;;;;;;;9.13;4.00;;;;;;;15.07;100.00;99982.91;4289705;81;28475;-81
2021/09/06 20:11:15;;;;;;;11.25;3.90;;;;;;;14.90;100.00;99986.33;4209655;82;28504;-80
2021/09/06 20:17:16;;;;;;;9.23;4.10;;;;;;;14.91;100.00;99992.03;4218362;83;28480;-80
2021/09/06 20:23:17;;;;;;;13.40;4.92;;;;;;;15.15;100.00;99994.70;4261606;82;28499;-80
2021/09/06 20:29:19;;;;;;;10.85;5.10;;;;;;;15.39;97.55;99996.84;4222673;82;28450;-82
2021/09/06 20:35:20;;;;;;;13.55;5.03;;;;;;;15.46;98.90;99993.98;4226572;82;28581;-83
2021/09/06 20:41:22;;;;;;;11.18;4.90;;;;;;;15.18;100.00;99993.70;4235254;82;28494;-81
2021/09/06 20:47:24;;;;;;;9.48;4.58;;;;;;;15.12;99.88;99988.42;4248851;82;28535;-83
2021/09/06 20:53:25;;;;;;;11.83;5.00;;;;;;;14.86;100.00;99992.73;4263735;82;28449;-83
2021/09/06 20:59:26;;;;;;;10.05;5.10;;;;;;;14.59;100.00;99998.61;4218693;82;28494;-82
2021/09/06 21:05:31;;;;;;;11.22;5.15;;;;;;;14.69;100.00;99997.20;4251898;81;28505;-82
2021/09/06 21:11:32;;;;;;;10.10;5.33;;;;;;;14.61;100.00;99997.00;4281850;81;28486;-80
2021/09/06 21:17:34;;;;;;;11.08;4.62;;;;;;;14.40;100.00;99994.34;4300342;81;28519;-80
2021/09/06 21:23:35;;;;;;;10.53;4.85;;;;;;;14.45;100.00;99991.23;4299724;81;28493;-80
2021/09/06 21:29:36;;;;;;;9.33;4.95;;;;;;;14.38;100.00;100002.68;4301822;81;28436;-80
2021/09/06 21:35:37;;;;;;;13.83;5.67;;;;;;;14.30;100.00;100005.20;4311096;81;28541;-79
2021/09/06 21:41:39;;;;;;;9.38;4.95;;;;;;;14.24;100.00;100007.47;4326611;81;28493;-80
2021/09/06 21:47:40;;;;;;;10.95;4.42;;;;;;;14.17;100.00;100002.16;4292961;82;28468;-81
2021/09/06 21:53:42;;;;;;;9.23;4.47;;;;;;;13.80;100.00;100005.80;4296167;81;28496;-82
2021/09/06 21:59:43;;;;;;;9.45;4.42;;;;;;;13.61;100.00;100009.08;4313028;81;28464;-81
2021/09/06 22:05:45;;;;;;;11.00;4.95;;;;;;;13.94;100.00;99998.34;4299806;81;28560;-81
2021/09/06 22:11:49;;;;;;;12.45;4.78;;;;;;;13.99;100.00;100004.41;4253490;82;28580;-80
2021/09/06 22:17:50;;;;;;;12.88;5.28;;;;;;;13.68;100.00;100003.58;4269832;82;28467;-80
2021/09/06 22:23:51;;;;;;;11.75;5.22;;;;;;;13.53;100.00;99999.38;4283304;82;28551;-79
2021/09/06 22:29:55;;;;;;;11.10;5.22;;;;;;;13.75;100.00;100002.14;4269706;82;28514;-81
2021/09/06 22:35:56;;;;;;;12.28;5.45;;;;;;;13.66;100.00;100000.29;4271074;82;28488;-81
2021/09/06 22:41:57;;;;;;;10.43;5.30;;;;;;;13.86;100.00;99996.50;4253203;82;28463;-80
2021/09/06 22:47:58;;;;;;;12.33;5.60;;;;;;;13.68;100.00;99998.69;4260206;84;28476;-80
2021/09/06 22:54:00;;;;;;;11.40;5.47;;;;;;;13.77;100.00;99987.35;4259437;83;28517;-80
2021/09/06 23:00:02;;;;;;;11.83;5.40;;;;;;;13.56;100.00;99990.55;4260669;84;28472;-81
2021/09/06 23:06:04;;;;;;;11.43;5.58;;;;;;;13.58;100.00;99991.14;4258542;82;28504;-82
2021/09/06 23:12:07;;;;;;;10.43;5.28;;;;;;;13.56;100.00;99986.50;4248809;84;28558;-82
2021/09/06 23:18:08;;;;;;;10.15;5.20;;;;;;;13.36;100.00;99982.94;4250827;82;28514;-82
2021/09/06 23:24:10;;;;;;;13.08;5.78;;;;;;;13.28;100.00;99981.92;4248913;84;28481;-82
2021/09/06 23:30:13;;;;;;;12.28;5.92;;;;;;;13.32;100.00;99977.70;4248802;82;28476;-82
2021/09/06 23:36:14;;;;;;;11.05;6.00;;;;;;;13.25;100.00;99971.55;4160425;84;28484;-82
2021/09/06 23:42:15;;;;;;;11.00;5.62;;;;;;;12.93;100.00;99975.23;4180700;84;28496;-82
2021/09/06 23:48:17;;;;;;;12.20;5.17;;;;;;;13.06;100.00;99966.69;4188356;84;28516;-82
2021/09/06 23:54:18;;;;;;;12.00;5.30;;;;;;;12.94;100.00;99955.28;4248771;84;28465;-82
